createdAt,value
2023-04-19T00:00:58.152Z,78.9378
2023-04-19T00:01:59.624Z,79.0172
2023-04-19T00:03:01.332Z,79.0983
2023-04-19T00:04:03.060Z,79.1889
2023-04-19T00:05:05.351Z,79.3039
2023-04-19T00:06:07.097Z,79.1219
2023-04-19T00:07:08.478Z,79.3092
2023-04-19T00:08:09.938Z,79.4684
2023-04-19T00:09:11.304Z,79.7910
2023-04-19T00:10:12.701Z,79.3409
2023-04-19T00:11:14.092Z,79.1655
2023-04-19T00:12:15.476Z,78.8903
2023-04-19T00:13:16.875Z,78.8267
2023-04-19T00:14:18.389Z,78.7912
2023-04-19T00:15:19.918Z,79.1299
2023-04-19T00:16:21.389Z,79.3847
2023-04-19T00:17:22.842Z,79.4180
2023-04-19T00:18:24.329Z,79.4455
2023-04-19T00:19:25.749Z,79.5303
2023-04-19T00:20:27.408Z,79.3995
2023-04-19T00:21:29.080Z,79.4433
2023-04-19T00:22:30.526Z,79.3654
2023-04-19T00:23:31.997Z,79.2218
2023-04-19T00:24:33.436Z,79.4168
2023-04-19T00:25:34.890Z,79.4247
2023-04-19T00:26:36.282Z,79.6365
2023-04-19T00:27:37.638Z,79.6928
2023-04-19T00:28:39.034Z,79.8195
2023-04-19T00:29:40.422Z,79.7384
2023-04-19T00:30:41.855Z,79.4015
2023-04-19T00:31:43.255Z,79.5306
2023-04-19T00:32:44.674Z,79.3985
2023-04-19T00:33:46.027Z,79.4262
2023-04-19T00:34:47.414Z,79.7342
2023-04-19T00:35:48.753Z,79.7200
2023-04-19T00:36:50.144Z,79.6392
2023-04-19T00:37:51.548Z,79.8231
2023-04-19T00:38:52.959Z,79.8143
2023-04-19T00:39:54.344Z,79.9445
2023-04-19T00:40:55.730Z,79.8739
2023-04-19T00:41:57.072Z,79.9124
2023-04-19T00:42:58.478Z,79.8287
2023-04-19T00:43:59.841Z,79.7432
2023-04-19T00:45:01.409Z,79.7999
2023-04-19T00:46:02.838Z,79.7572
2023-04-19T00:47:04.226Z,79.8475
2023-04-19T00:48:05.865Z,79.7890
2023-04-19T00:49:07.213Z,79.6567
2023-04-19T00:50:08.610Z,79.5996
2023-04-19T00:51:09.983Z,79.6049
2023-04-19T00:52:11.400Z,79.8808
2023-04-19T00:53:12.801Z,79.7949
2023-04-19T00:54:14.443Z,79.4896
2023-04-19T00:55:16.298Z,79.7568
2023-04-19T00:56:17.697Z,79.8108
2023-04-19T00:57:19.060Z,79.6922
2023-04-19T00:58:20.412Z,79.7227
2023-04-19T00:59:21.756Z,79.9984
2023-04-19T01:00:23.145Z,80.1250
2023-04-19T01:01:24.510Z,79.9731
2023-04-19T01:02:25.930Z,80.0691
2023-04-19T01:03:27.889Z,80.1194
2023-04-19T01:04:29.734Z,80.3391
2023-04-19T01:05:31.153Z,80.2453
2023-04-19T01:06:32.508Z,80.2659
2023-04-19T01:07:33.944Z,79.8873
2023-04-19T01:08:35.309Z,80.1513
2023-04-19T01:09:36.708Z,80.0120
2023-04-19T01:10:38.045Z,80.1615
2023-04-19T01:11:40.782Z,80.2855
2023-04-19T01:12:41.436Z,80.3431
2023-04-19T01:13:42.803Z,80.4153
2023-04-19T01:14:44.202Z,80.6076
2023-04-19T01:15:45.620Z,80.7043
2023-04-19T01:16:46.995Z,80.3928
2023-04-19T01:17:48.399Z,80.5781
2023-04-19T01:18:49.808Z,80.6045
2023-04-19T01:19:51.202Z,80.7111
2023-04-19T01:20:52.589Z,80.6790
2023-04-19T01:21:54.038Z,80.4907
2023-04-19T01:22:55.393Z,80.6307
2023-04-19T01:23:56.973Z,80.7649
2023-04-19T01:24:58.365Z,80.7287
2023-04-19T01:25:59.885Z,80.7667
2023-04-19T01:27:01.317Z,80.8226
2023-04-19T01:28:02.814Z,80.7742
2023-04-19T01:29:04.230Z,80.7574
2023-04-19T01:30:05.573Z,80.7857
2023-04-19T01:31:06.960Z,80.8535
2023-04-19T01:32:08.277Z,80.7539
2023-04-19T01:33:09.618Z,80.7928
2023-04-19T01:34:10.983Z,80.7886
2023-04-19T01:35:12.328Z,80.6559
2023-04-19T01:36:13.673Z,80.5091
2023-04-19T01:37:15.010Z,80.5613
2023-04-19T01:38:16.497Z,80.7874
2023-04-19T01:39:18.870Z,80.8426
2023-04-19T01:40:20.301Z,80.7320
2023-04-19T01:41:21.643Z,80.7864
2023-04-19T01:42:23.101Z,80.9112
2023-04-19T01:43:24.522Z,80.9807
2023-04-19T01:44:25.913Z,81.1514
2023-04-19T01:45:27.315Z,80.9202
2023-04-19T01:46:28.888Z,80.9825
2023-04-19T01:47:30.308Z,81.0211
2023-04-19T01:48:31.758Z,81.0215
2023-04-19T01:49:33.146Z,80.9622
2023-04-19T01:50:34.591Z,80.8369
2023-04-19T01:51:36.013Z,80.9650
2023-04-19T01:52:37.485Z,81.2205
2023-04-19T01:53:38.920Z,81.2709
2023-04-19T01:54:40.287Z,81.2966
2023-04-19T01:55:41.742Z,81.1852
2023-04-19T01:56:43.209Z,81.2178
2023-04-19T01:57:44.609Z,81.0190
2023-04-19T01:58:46.057Z,81.1763
2023-04-19T01:59:47.430Z,81.3185
2023-04-19T02:00:48.919Z,81.3721
2023-04-19T02:01:50.348Z,81.2321
2023-04-19T02:02:51.989Z,81.3348
2023-04-19T02:03:53.598Z,81.4461
2023-04-19T02:04:55.526Z,81.2867
2023-04-19T02:05:56.963Z,81.3124
2023-04-19T02:06:58.431Z,81.2958
2023-04-19T02:07:59.876Z,81.4156
2023-04-19T02:09:01.258Z,81.3119
2023-04-19T02:10:02.773Z,81.3749
2023-04-19T02:11:04.221Z,81.2936
2023-04-19T02:12:05.623Z,81.2737
2023-04-19T02:13:07.139Z,81.1871
2023-04-19T02:14:08.542Z,81.2673
2023-04-19T02:15:09.969Z,81.2565
2023-04-19T02:16:11.550Z,81.3026
2023-04-19T02:17:13.037Z,81.2676
2023-04-19T02:18:14.423Z,81.1151
2023-04-19T02:19:15.875Z,81.3526
2023-04-19T02:20:17.299Z,81.3836
2023-04-19T02:21:18.724Z,81.4653
2023-04-19T02:22:20.147Z,81.1855
2023-04-19T02:23:21.608Z,81.1084
2023-04-19T02:24:23.014Z,81.1437
2023-04-19T02:25:24.467Z,81.1857
2023-04-19T02:26:26.030Z,81.4506
2023-04-19T02:27:27.489Z,81.5156
2023-04-19T02:28:28.888Z,81.3556
2023-04-19T02:29:30.382Z,81.2351
2023-04-19T02:30:31.858Z,81.1176
2023-04-19T02:31:33.300Z,81.2373
2023-04-19T02:32:34.790Z,81.3820
2023-04-19T02:33:36.127Z,81.4293
2023-04-19T02:34:37.599Z,81.3257
2023-04-19T02:35:38.966Z,81.2873
2023-04-19T02:36:40.347Z,81.4211
2023-04-19T02:37:41.829Z,81.3717
2023-04-19T02:38:43.190Z,81.3027
2023-04-19T02:39:44.595Z,81.3324
2023-04-19T02:40:46.035Z,81.4002
2023-04-19T02:41:47.558Z,81.2410
2023-04-19T02:42:48.963Z,81.0308
2023-04-19T02:43:50.411Z,80.8800
2023-04-19T02:44:51.995Z,80.9553
2023-04-19T02:45:53.476Z,81.1067
2023-04-19T02:46:54.893Z,80.9179
2023-04-19T02:47:56.369Z,81.0496
2023-04-19T02:48:57.939Z,81.2328
2023-04-19T02:49:59.328Z,81.2218
2023-04-19T02:51:00.773Z,81.3705
2023-04-19T02:52:02.241Z,81.4442
2023-04-19T02:53:03.785Z,81.4605
2023-04-19T02:54:05.273Z,81.5437
2023-04-19T02:55:06.659Z,81.6541
2023-04-19T02:56:08.073Z,81.3604
2023-04-19T02:57:09.526Z,81.1341
2023-04-19T02:58:10.921Z,81.2072
2023-04-19T02:59:12.370Z,81.2700
2023-04-19T03:00:13.861Z,81.1865
2023-04-19T03:01:15.643Z,81.2725
2023-04-19T03:02:17.118Z,81.2630
2023-04-19T03:03:18.593Z,81.4468
2023-04-19T03:04:19.998Z,81.5054
2023-04-19T03:05:21.445Z,81.4897
2023-04-19T03:06:22.858Z,81.6746
2023-04-19T03:07:24.378Z,81.7138
2023-04-19T03:08:25.799Z,81.7970
2023-04-19T03:09:27.227Z,81.9008
2023-04-19T03:10:28.685Z,81.9151
2023-04-19T03:11:30.091Z,81.8925
2023-04-19T03:12:31.473Z,82.0235
2023-04-19T03:13:32.968Z,81.9267
2023-04-19T03:14:34.362Z,82.1034
2023-04-19T03:15:35.815Z,82.2915
2023-04-19T03:16:37.252Z,82.4228
2023-04-19T03:17:38.697Z,82.3057
2023-04-19T03:18:40.131Z,82.2645
2023-04-19T03:19:41.609Z,82.3113
2023-04-19T03:20:43.058Z,82.2034
2023-04-19T03:21:44.519Z,82.3362
2023-04-19T03:22:45.982Z,82.5735
2023-04-19T03:23:47.380Z,82.5768
2023-04-19T03:24:48.787Z,82.4497
2023-04-19T03:25:50.250Z,82.2638
2023-04-19T03:26:51.725Z,82.2500
2023-04-19T03:27:53.155Z,82.4246
2023-04-19T03:28:54.660Z,82.3748
2023-04-19T03:29:56.179Z,82.3216
2023-04-19T03:30:57.676Z,82.2899
2023-04-19T03:31:59.113Z,82.4559
2023-04-19T03:33:00.520Z,82.4836
2023-04-19T03:34:01.940Z,82.5134
2023-04-19T03:35:03.348Z,82.3679
2023-04-19T03:36:04.797Z,82.4336
2023-04-19T03:37:06.190Z,82.5390
2023-04-19T03:38:07.632Z,82.6285
2023-04-19T03:39:09.082Z,82.4341
2023-04-19T03:40:10.503Z,82.5282
2023-04-19T03:41:11.949Z,82.6576
2023-04-19T03:42:13.420Z,82.6056
2023-04-19T03:43:14.839Z,82.4111
2023-04-19T03:44:16.432Z,82.2703
2023-04-19T03:45:18.194Z,82.0025
2023-04-19T03:46:19.649Z,82.1771
2023-04-19T03:47:21.253Z,82.0775
2023-04-19T03:48:22.837Z,82.0718
2023-04-19T03:49:24.294Z,82.3027
2023-04-19T03:50:25.737Z,82.3198
2023-04-19T03:51:27.158Z,82.3985
2023-04-19T03:52:28.567Z,82.3642
2023-04-19T03:53:29.970Z,82.3896
2023-04-19T03:54:31.375Z,82.3807
2023-04-19T03:55:32.841Z,82.4327
2023-04-19T03:56:34.438Z,82.4283
2023-04-19T03:57:35.863Z,82.3713
2023-04-19T03:58:37.381Z,82.3064
2023-04-19T03:59:38.800Z,82.3298
2023-04-19T04:00:40.258Z,82.2601
2023-04-19T04:01:41.895Z,82.1603
2023-04-19T04:02:43.837Z,82.1895
2023-04-19T04:03:45.634Z,82.1769
2023-04-19T04:04:47.486Z,82.1713
2023-04-19T04:05:48.929Z,82.2440
2023-04-19T04:06:50.406Z,82.2788
2023-04-19T04:07:51.808Z,82.3415
2023-04-19T04:08:53.199Z,82.3688
2023-04-19T04:09:54.618Z,82.2628
2023-04-19T04:10:56.026Z,82.2453
2023-04-19T04:11:57.410Z,82.1194
2023-04-19T04:12:58.899Z,82.1028
2023-04-19T04:14:00.392Z,82.1629
2023-04-19T04:15:01.863Z,82.0978
2023-04-19T04:16:03.290Z,82.2863
2023-04-19T04:17:04.716Z,82.2570
2023-04-19T04:18:08.566Z,82.2784
2023-04-19T04:19:07.910Z,82.2146
2023-04-19T04:20:09.328Z,82.1542
2023-04-19T04:21:10.717Z,82.1763
2023-04-19T04:22:12.163Z,82.2566
2023-04-19T04:23:13.566Z,82.3385
2023-04-19T04:24:15.144Z,82.3184
2023-04-19T04:25:16.686Z,82.1674
2023-04-19T04:26:18.086Z,81.9523
2023-04-19T04:27:19.584Z,81.8319
2023-04-19T04:28:21.274Z,82.0736
2023-04-19T04:29:22.735Z,82.1950
2023-04-19T04:30:26.554Z,82.3752
2023-04-19T04:31:24.258Z,82.0919
2023-04-19T04:32:25.750Z,81.9470
2023-04-19T04:33:27.232Z,82.0155
2023-04-19T04:34:28.724Z,81.9334
2023-04-19T04:35:30.199Z,81.9587
2023-04-19T04:36:31.645Z,81.9064
2023-04-19T04:37:33.084Z,81.9120
2023-04-19T04:38:34.576Z,81.8490
2023-04-19T04:39:35.978Z,81.8443
2023-04-19T04:40:37.383Z,81.9041
2023-04-19T04:41:38.828Z,81.9434
2023-04-19T04:42:40.295Z,81.8512
2023-04-19T04:43:41.944Z,81.6537
2023-04-19T04:44:43.381Z,81.7053
2023-04-19T04:45:44.862Z,81.8936
2023-04-19T04:46:46.331Z,81.7977
2023-04-19T04:47:47.806Z,81.6904
2023-04-19T04:48:49.279Z,81.5832
2023-04-19T04:49:50.696Z,81.5110
2023-04-19T04:50:52.113Z,81.4185
2023-04-19T04:51:53.560Z,81.5514
2023-04-19T04:52:54.972Z,81.5985
2023-04-19T04:53:56.516Z,81.7125
2023-04-19T04:54:57.978Z,81.5103
2023-04-19T04:55:59.672Z,81.6224
2023-04-19T04:57:01.189Z,81.4410
2023-04-19T04:58:02.614Z,81.4289
2023-04-19T04:59:04.000Z,81.4558
2023-04-19T05:00:05.435Z,81.5975
2023-04-19T05:01:06.888Z,81.5124
2023-04-19T05:02:08.469Z,81.3279
2023-04-19T05:03:10.060Z,81.2079
2023-04-19T05:04:11.587Z,81.1866
2023-04-19T05:05:13.086Z,81.1887
2023-04-19T05:06:14.501Z,81.1573
2023-04-19T05:07:16.173Z,81.1571
2023-04-19T05:08:17.594Z,81.1151
2023-04-19T05:09:18.998Z,81.0484
2023-04-19T05:10:20.457Z,80.9945
2023-04-19T05:11:21.885Z,80.9220
2023-04-19T05:12:23.367Z,80.9033
2023-04-19T05:13:24.829Z,80.8098
2023-04-19T05:14:26.280Z,80.9390
2023-04-19T05:15:27.709Z,81.0908
2023-04-19T05:16:29.310Z,81.0959
2023-04-19T05:17:30.825Z,81.0344
2023-04-19T05:18:32.213Z,81.1139
2023-04-19T05:19:33.654Z,80.9971
2023-04-19T05:20:35.089Z,80.8757
2023-04-19T05:21:36.577Z,80.8960
2023-04-19T05:22:37.978Z,80.9447
2023-04-19T05:23:39.453Z,80.9887
2023-04-19T05:24:42.375Z,80.9749
2023-04-19T05:25:41.485Z,81.2721
2023-04-19T05:26:42.883Z,81.3489
2023-04-19T05:27:44.308Z,81.3305
2023-04-19T05:28:45.754Z,81.2616
2023-04-19T05:29:47.175Z,81.0785
2023-04-19T05:30:48.660Z,80.9029
2023-04-19T05:31:50.101Z,80.6477
2023-04-19T05:32:51.554Z,80.4895
2023-04-19T05:33:53.047Z,80.5877
2023-04-19T05:34:54.529Z,80.5689
2023-04-19T05:35:55.947Z,80.5077
2023-04-19T05:36:57.397Z,80.6922
2023-04-19T05:37:58.821Z,80.6205
2023-04-19T05:39:00.220Z,80.5418
2023-04-19T05:40:01.667Z,80.7392
2023-04-19T05:41:03.048Z,80.8196
2023-04-19T05:42:04.462Z,80.7879
2023-04-19T05:43:05.870Z,80.9630
2023-04-19T05:44:07.281Z,80.8950
2023-04-19T05:45:08.679Z,80.7365
2023-04-19T05:46:10.165Z,80.7730
2023-04-19T05:47:11.596Z,80.7531
2023-04-19T05:48:12.987Z,80.6447
2023-04-19T05:49:14.450Z,80.6339
2023-04-19T05:50:15.845Z,80.5635
2023-04-19T05:51:17.284Z,80.3860
2023-04-19T05:52:18.686Z,80.2893
2023-04-19T05:53:20.097Z,80.4311
2023-04-19T05:54:21.505Z,80.3581
2023-04-19T05:55:23.009Z,80.2046
2023-04-19T05:56:24.440Z,80.2517
2023-04-19T05:57:25.825Z,80.3518
2023-04-19T05:58:27.254Z,80.3334
2023-04-19T05:59:28.683Z,80.2165
2023-04-19T06:00:30.083Z,80.2207
2023-04-19T06:01:31.514Z,80.2918
2023-04-19T06:02:33.133Z,80.3968
2023-04-19T06:03:34.953Z,80.3914
2023-04-19T06:04:37.375Z,80.4190
2023-04-19T06:05:39.378Z,80.2497
2023-04-19T06:06:40.801Z,80.3005
2023-04-19T06:07:47.246Z,80.3762
2023-04-19T06:08:44.282Z,80.3157
2023-04-19T06:09:45.693Z,80.2568
2023-04-19T06:10:54.510Z,80.2898
2023-04-19T06:11:51.201Z,80.0527
2023-04-19T06:12:50.518Z,79.8312
2023-04-19T06:13:51.970Z,79.8511
2023-04-19T06:14:53.399Z,79.9213
2023-04-19T06:15:54.919Z,79.6750
2023-04-19T06:16:56.304Z,79.6836
2023-04-19T06:17:59.776Z,79.7466
2023-04-19T06:18:58.881Z,79.2786
2023-04-19T06:20:00.365Z,79.5806
2023-04-19T06:21:01.775Z,79.5521
2023-04-19T06:22:03.194Z,79.6571
2023-04-19T06:23:04.614Z,79.7017
2023-04-19T06:24:06.076Z,79.1148
2023-04-19T06:25:07.521Z,78.9892
2023-04-19T06:26:09.047Z,79.1915
2023-04-19T06:27:10.479Z,79.2055
2023-04-19T06:28:11.882Z,79.4204
2023-04-19T06:29:13.277Z,79.2735
2023-04-19T06:30:14.706Z,79.3676
2023-04-19T06:31:16.099Z,79.2615
2023-04-19T06:32:17.580Z,79.0418
2023-04-19T06:33:18.995Z,79.0159
2023-04-19T06:34:20.412Z,79.0444
2023-04-19T06:35:21.811Z,78.9851
2023-04-19T06:36:23.239Z,78.9581
2023-04-19T06:37:24.691Z,78.7683
2023-04-19T06:38:26.130Z,78.7917
2023-04-19T06:39:27.548Z,78.7084
2023-04-19T06:40:29.036Z,78.7758
2023-04-19T06:41:30.530Z,78.8139
2023-04-19T06:42:31.982Z,78.6915
2023-04-19T06:43:33.398Z,78.5762
2023-04-19T06:44:34.943Z,78.8817
2023-04-19T06:45:36.456Z,78.6825
2023-04-19T06:46:37.894Z,78.6743
2023-04-19T06:47:39.366Z,78.1701
2023-04-19T06:48:40.803Z,78.1677
2023-04-19T06:49:42.369Z,78.3798
2023-04-19T06:50:43.835Z,78.1944
2023-04-19T06:51:45.278Z,78.4155
2023-04-19T06:52:46.751Z,78.3652
2023-04-19T06:53:48.202Z,78.0235
2023-04-19T06:54:49.816Z,78.0330
2023-04-19T06:55:51.261Z,77.7973
2023-04-19T06:56:52.727Z,77.7987
2023-04-19T06:57:54.229Z,77.9572
2023-04-19T06:58:55.680Z,77.9832
2023-04-19T06:59:57.154Z,78.1095
2023-04-19T07:00:58.674Z,78.1093
2023-04-19T07:02:00.213Z,78.3120
2023-04-19T07:03:01.869Z,78.5222
2023-04-19T07:04:03.874Z,78.2045
2023-04-19T07:05:06.093Z,78.2156
2023-04-19T07:06:07.519Z,78.0571
2023-04-19T07:07:08.942Z,78.5233
2023-04-19T07:08:10.394Z,78.5505
2023-04-19T07:09:11.836Z,78.5503
2023-04-19T07:10:13.318Z,78.5658
2023-04-19T07:11:14.756Z,78.3478
2023-04-19T07:12:16.266Z,78.3362
2023-04-19T07:13:17.718Z,78.3356
2023-04-19T07:14:19.334Z,78.5900
2023-04-19T07:15:20.797Z,78.3495
2023-04-19T07:16:22.464Z,78.5133
2023-04-19T07:17:24.010Z,78.6170
2023-04-19T07:18:25.565Z,78.5786
2023-04-19T07:19:27.059Z,78.5264
2023-04-19T07:20:28.720Z,78.4997
2023-04-19T07:21:30.248Z,78.2343
2023-04-19T07:22:31.774Z,78.2990
2023-04-19T07:23:33.243Z,78.0780
2023-04-19T07:24:34.663Z,78.1259
2023-04-19T07:25:36.125Z,77.9476
2023-04-19T07:26:37.630Z,77.6877
2023-04-19T07:27:39.043Z,77.3397
2023-04-19T07:28:40.509Z,77.5820
2023-04-19T07:29:41.989Z,77.8499
2023-04-19T07:30:43.450Z,78.0507
2023-04-19T07:31:44.947Z,78.1414
2023-04-19T07:32:46.555Z,78.2651
2023-04-19T07:33:48.094Z,78.1445
2023-04-19T07:34:49.561Z,77.8028
2023-04-19T07:35:51.221Z,77.3662
2023-04-19T07:36:52.714Z,77.2373
2023-04-19T07:37:57.264Z,77.6070
2023-04-19T07:38:58.901Z,77.4316
2023-04-19T07:40:01.238Z,77.7606
2023-04-19T07:41:02.751Z,78.0962
2023-04-19T07:42:04.259Z,78.1284
2023-04-19T07:43:05.796Z,77.9615
2023-04-19T07:44:07.356Z,77.5667
2023-04-19T07:45:08.809Z,77.7608
2023-04-19T07:46:10.299Z,77.8515
2023-04-19T07:47:11.758Z,77.9355
2023-04-19T07:48:13.251Z,77.5327
2023-04-19T07:49:14.713Z,77.6568
2023-04-19T07:50:16.297Z,77.6934
2023-04-19T07:51:17.831Z,77.9209
2023-04-19T07:52:19.272Z,78.0161
2023-04-19T07:53:20.721Z,77.7813
2023-04-19T07:54:22.137Z,77.6088
2023-04-19T07:55:23.648Z,77.5568
2023-04-19T07:56:25.091Z,77.3424
2023-04-19T07:57:26.618Z,77.6521
2023-04-19T07:58:28.090Z,77.6644
2023-04-19T07:59:29.602Z,77.1097
2023-04-19T08:00:31.023Z,77.4950
2023-04-19T08:01:32.840Z,77.5121
2023-04-19T08:02:34.787Z,77.3805
2023-04-19T08:03:36.481Z,77.1773
2023-04-19T08:04:38.548Z,77.1947
2023-04-19T08:05:40.417Z,77.3956
2023-04-19T08:06:41.975Z,77.4056
2023-04-19T08:07:43.478Z,77.2237
2023-04-19T08:08:44.930Z,77.3310
2023-04-19T08:09:46.476Z,77.1432
2023-04-19T08:10:47.932Z,77.0183
2023-04-19T08:11:49.447Z,76.7902
2023-04-19T08:14:04.558Z,76.7955
2023-04-19T08:15:02.661Z,76.6969
2023-04-19T08:17:22.050Z,76.3536
2023-04-19T08:18:01.119Z,76.3682
2023-04-19T08:19:02.608Z,76.6944
2023-04-19T08:20:04.100Z,76.5223
2023-04-19T08:21:05.538Z,75.9695
2023-04-19T08:22:07.014Z,75.9185
2023-04-19T08:23:20.363Z,76.2283
2023-04-19T08:24:10.483Z,76.2433
2023-04-19T08:25:11.900Z,75.5221
2023-04-19T08:26:13.378Z,75.8794
2023-04-19T08:27:14.881Z,75.6522
2023-04-19T08:28:16.354Z,75.6286
2023-04-19T08:29:17.945Z,75.4849
2023-04-19T08:30:19.595Z,74.9582
2023-04-19T08:31:21.056Z,74.6026
2023-04-19T08:32:22.552Z,74.7157
2023-04-19T08:33:24.040Z,74.3229
2023-04-19T08:34:25.469Z,74.7021
2023-04-19T08:35:26.908Z,74.9325
2023-04-19T08:36:37.104Z,74.5949
2023-04-19T08:37:30.451Z,74.5206
2023-04-19T08:38:31.975Z,74.4000
2023-04-19T08:39:34.262Z,74.3400
2023-04-19T08:40:33.545Z,74.4742
2023-04-19T08:41:34.999Z,74.3509
2023-04-19T08:42:37.249Z,74.2089
2023-04-19T08:43:40.486Z,74.0545
2023-04-19T08:44:53.795Z,73.7229
2023-04-19T08:45:43.007Z,73.8487
2023-04-19T08:46:44.421Z,73.9803
2023-04-19T08:47:58.665Z,74.0420
2023-04-19T08:48:47.942Z,74.0795
2023-04-19T08:49:56.300Z,73.8119
2023-04-19T08:51:04.446Z,74.2758
2023-04-19T08:51:53.494Z,74.3056
2023-04-19T08:52:59.053Z,74.1366
2023-04-19T08:53:56.975Z,73.8149
2023-04-19T08:54:58.471Z,73.9257
2023-04-19T08:56:10.023Z,73.9012
2023-04-19T08:57:01.958Z,73.6489
2023-04-19T08:58:04.197Z,74.1461
2023-04-19T08:59:19.253Z,73.8111
2023-04-19T09:00:06.619Z,73.7297
2023-04-19T09:01:08.301Z,73.7566
2023-04-19T09:02:08.733Z,73.8494
2023-04-19T09:03:10.646Z,74.3158
2023-04-19T09:05:13.378Z,74.9987
2023-04-19T09:06:15.293Z,75.0209
2023-04-19T09:07:16.842Z,74.8711
2023-04-19T09:08:18.297Z,74.7863
2023-04-19T09:10:21.576Z,74.8634
2023-04-19T09:11:23.085Z,74.4665
2023-04-19T09:12:24.537Z,74.5841
2023-04-19T09:13:26.032Z,74.3319
2023-04-19T09:14:27.467Z,74.2444
2023-04-19T09:15:28.940Z,74.3086
2023-04-19T09:16:30.414Z,74.3661
2023-04-19T09:17:31.888Z,73.6915
2023-04-19T09:18:35.933Z,73.6043
2023-04-19T09:19:35.372Z,72.8025
2023-04-19T09:20:36.840Z,72.9030
2023-04-19T09:21:38.270Z,72.1891
2023-04-19T09:22:39.684Z,72.1539
2023-04-19T09:23:41.148Z,72.2458
2023-04-19T09:26:06.280Z,72.3990
2023-04-19T09:26:46.233Z,72.3691
2023-04-19T09:27:47.669Z,72.3783
2023-04-19T09:28:49.081Z,72.3281
2023-04-19T09:29:50.496Z,72.6621
2023-04-19T09:31:00.668Z,72.2363
2023-04-19T09:31:54.092Z,73.0007
2023-04-19T09:32:55.568Z,73.1580
2023-04-19T09:33:56.983Z,73.2078
2023-04-19T09:34:58.454Z,72.8596
2023-04-19T09:35:59.902Z,72.5951
2023-04-19T09:37:12.177Z,72.2180
2023-04-19T09:38:06.721Z,72.5776
2023-04-19T09:39:05.934Z,72.6390
2023-04-19T09:40:07.381Z,72.4900
2023-04-19T09:41:08.800Z,72.3417
2023-04-19T09:42:10.260Z,71.3514
2023-04-19T09:44:50.198Z,71.2505
2023-04-19T09:46:17.344Z,70.3433
2023-04-19T09:47:18.716Z,70.9671
2023-04-19T09:48:20.159Z,71.4262
2023-04-19T09:49:33.547Z,71.1127
2023-04-19T09:50:27.288Z,71.5936
2023-04-19T09:51:23.753Z,71.2577
2023-04-19T09:52:25.150Z,71.4504
2023-04-19T09:53:26.528Z,71.4946
2023-04-19T09:54:27.941Z,71.4958
2023-04-19T09:55:31.721Z,71.5065
2023-04-19T09:56:31.350Z,70.9804
2023-04-19T09:57:32.766Z,70.7260
2023-04-19T09:59:35.919Z,71.5806
2023-04-19T10:00:47.996Z,71.3627
2023-04-19T10:01:39.368Z,71.7908
2023-04-19T10:02:40.949Z,71.5880
2023-04-19T10:03:42.619Z,70.9878
2023-04-19T10:05:46.317Z,70.7094
2023-04-19T10:07:07.403Z,70.8884
2023-04-19T10:07:49.874Z,70.8734
2023-04-19T10:08:51.621Z,71.0867
2023-04-19T10:09:55.023Z,71.6676
2023-04-19T10:10:55.236Z,71.5969
2023-04-19T10:12:03.764Z,71.3651
2023-04-19T10:13:15.891Z,70.7330
2023-04-19T10:14:00.900Z,70.5877
2023-04-19T10:15:02.313Z,71.3544
2023-04-19T10:16:15.502Z,71.3461
2023-04-19T10:17:05.794Z,70.8611
2023-04-19T10:18:07.413Z,70.8609
2023-04-19T10:19:10.054Z,70.6193
2023-04-19T10:20:09.224Z,71.5638
2023-04-19T10:21:10.608Z,71.3009
2023-04-19T10:22:11.990Z,71.0658
2023-04-19T10:23:13.487Z,70.8281
2023-04-19T10:24:14.893Z,71.0727
2023-04-19T10:25:16.356Z,70.9014
2023-04-19T10:26:17.765Z,70.7111
2023-04-19T10:27:19.216Z,70.4593
2023-04-19T10:28:20.647Z,70.3237
2023-04-19T10:29:22.074Z,69.6945
2023-04-19T10:30:23.517Z,70.0871
2023-04-19T10:31:24.912Z,69.7506
2023-04-19T10:32:26.380Z,69.3751
2023-04-19T10:33:27.898Z,69.0647
2023-04-19T10:34:29.350Z,68.9971
2023-04-19T10:35:30.753Z,68.3594
2023-04-19T10:36:32.189Z,68.8774
2023-04-19T10:37:33.793Z,69.8685
2023-04-19T10:38:35.329Z,69.7905
2023-04-19T10:39:36.794Z,69.6168
2023-04-19T10:40:38.178Z,69.0953
2023-04-19T10:41:39.654Z,68.6891
2023-04-19T10:42:41.037Z,69.3529
2023-04-19T10:43:42.477Z,70.3684
2023-04-19T10:44:43.866Z,70.8357
2023-04-19T10:45:45.313Z,70.7184
2023-04-19T10:46:46.707Z,71.0373
2023-04-19T10:47:48.195Z,70.7640
2023-04-19T10:48:49.701Z,71.4817
2023-04-19T10:49:51.181Z,72.2068
2023-04-19T10:50:52.634Z,71.8068
2023-04-19T10:51:54.059Z,71.8809
2023-04-19T10:52:55.484Z,71.6247
2023-04-19T10:53:56.940Z,71.9590
2023-04-19T10:54:58.374Z,71.4906
2023-04-19T10:55:59.779Z,70.8454
2023-04-19T10:57:01.201Z,70.6348
2023-04-19T10:58:02.602Z,70.6728
2023-04-19T10:59:04.036Z,70.5163
2023-04-19T11:00:05.471Z,70.4651
2023-04-19T11:01:06.889Z,70.7660
2023-04-19T11:02:08.395Z,70.5888
2023-04-19T11:03:10.086Z,70.5691
2023-04-19T11:04:11.902Z,70.3442
2023-04-19T11:05:13.603Z,70.5376
2023-04-19T11:06:15.014Z,70.8575
2023-04-19T11:07:16.386Z,70.6994
2023-04-19T11:08:17.799Z,70.2659
2023-04-19T11:09:19.260Z,70.2502
2023-04-19T11:10:20.719Z,69.8299
2023-04-19T11:11:22.143Z,69.5767
2023-04-19T11:12:23.597Z,70.0158
2023-04-19T11:13:25.039Z,69.7240
2023-04-19T11:14:26.493Z,69.5947
2023-04-19T11:15:27.969Z,69.8271
2023-04-19T11:16:42.434Z,69.7191
2023-04-19T11:17:31.598Z,69.7130
2023-04-19T11:18:33.301Z,69.4354
2023-04-19T11:19:34.683Z,69.4296
2023-04-19T11:20:36.157Z,69.4171
2023-04-19T11:21:37.554Z,68.9724
2023-04-19T11:22:39.052Z,69.3197
2023-04-19T11:23:40.455Z,69.2102
2023-04-19T11:24:41.873Z,68.3577
2023-04-19T11:25:43.296Z,67.8644
2023-04-19T11:26:44.752Z,67.7291
2023-04-19T11:27:46.230Z,67.8804
2023-04-19T11:28:47.680Z,67.6983
2023-04-19T11:29:49.135Z,67.8918
2023-04-19T11:30:50.622Z,67.5285
2023-04-19T11:31:52.137Z,67.3576
2023-04-19T11:32:53.666Z,66.9672
2023-04-19T11:33:55.439Z,67.7187
2023-04-19T11:34:57.069Z,67.8450
2023-04-19T11:35:58.509Z,68.1396
2023-04-19T11:36:59.938Z,67.7875
2023-04-19T11:38:01.428Z,67.5210
2023-04-19T11:39:02.898Z,68.3272
2023-04-19T11:40:05.104Z,68.6819
2023-04-19T11:41:06.908Z,69.3897
2023-04-19T11:42:08.340Z,69.3461
2023-04-19T11:43:09.710Z,69.4226
2023-04-19T11:44:11.159Z,69.2731
2023-04-19T11:45:25.897Z,69.2845
2023-04-19T11:46:14.737Z,69.3200
2023-04-19T11:47:16.251Z,69.5184
2023-04-19T11:48:17.888Z,69.5900
2023-04-19T11:49:19.348Z,69.3032
2023-04-19T11:50:20.831Z,69.2454
2023-04-19T11:51:22.460Z,69.2056
2023-04-19T11:52:23.913Z,68.9729
2023-04-19T11:53:25.371Z,69.1562
2023-04-19T11:54:26.854Z,69.0338
2023-04-19T11:55:28.272Z,68.4378
2023-04-19T11:56:29.732Z,68.1403
2023-04-19T11:57:31.183Z,68.0437
2023-04-19T11:58:32.617Z,68.0814
2023-04-19T11:59:34.064Z,67.9961
2023-04-19T12:00:35.524Z,68.2207
2023-04-19T12:01:36.918Z,68.0413
2023-04-19T12:02:38.610Z,68.0347
2023-04-19T12:03:40.335Z,67.6702
2023-04-19T12:04:42.205Z,67.7240
2023-04-19T12:05:44.146Z,67.2949
2023-04-19T12:06:45.666Z,67.5593
2023-04-19T12:07:47.124Z,66.6905
2023-04-19T12:08:48.575Z,66.2682
2023-04-19T12:09:50.032Z,66.0901
2023-04-19T12:10:51.519Z,65.7343
2023-04-19T12:11:52.940Z,65.8106
2023-04-19T12:12:54.383Z,66.1061
2023-04-19T12:13:55.813Z,66.9424
2023-04-19T12:14:57.289Z,67.8614
2023-04-19T12:15:58.758Z,67.4662
2023-04-19T12:17:00.322Z,67.0196
2023-04-19T12:18:01.876Z,66.4812
2023-04-19T12:19:03.476Z,66.9340
2023-04-19T12:20:05.027Z,66.7389
2023-04-19T12:21:06.465Z,66.8667
2023-04-19T12:22:07.921Z,67.3326
2023-04-19T12:23:09.401Z,67.7705
2023-04-19T12:24:10.918Z,67.9064
2023-04-19T12:25:12.404Z,67.8622
2023-04-19T12:26:13.839Z,67.5228
2023-04-19T12:27:15.359Z,67.4025
2023-04-19T12:28:16.836Z,67.2043
2023-04-19T12:29:18.385Z,67.6243
2023-04-19T12:30:19.836Z,67.7132
2023-04-19T12:31:21.250Z,67.5975
2023-04-19T12:32:22.733Z,67.8196
2023-04-19T12:33:24.240Z,68.0636